sensor_id;sensor_type;location;lat;lon;timestamp;temperature;humidity
2973;DHT22;1496;51.404;7.232;2022-08-30T00:01:33;17.40;1.00
2973;DHT22;1496;51.404;7.232;2022-08-30T00:04:00;17.30;1.00
2973;DHT22;1496;51.404;7.232;2022-08-30T00:06:27;17.30;1.00
2973;DHT22;1496;51.404;7.232;2022-08-30T00:08:53;17.30;1.00
2973;DHT22;1496;51.404;7.232;2022-08-30T00:11:23;17.30;1.00
2973;DHT22;1496;51.404;7.232;2022-08-30T00:13:51;17.30;1.00
2973;DHT22;1496;51.404;7.232;2022-08-30T00:16:19;17.30;1.00
2973;DHT22;1496;51.404;7.232;2022-08-30T00:18:46;17.20;1.00
2973;DHT22;1496;51.404;7.232;2022-08-30T00:21:12;17.20;1.00
2973;DHT22;1496;51.404;7.232;2022-08-30T00:23:39;17.20;1.00
2973;DHT22;1496;51.404;7.232;2022-08-30T00:26:05;17.20;1.00
2973;DHT22;1496;51.404;7.232;2022-08-30T00:28:32;17.20;1.00
2973;DHT22;1496;51.404;7.232;2022-08-30T00:30:59;17.10;1.00
2973;DHT22;1496;51.404;7.232;2022-08-30T00:33:25;17.20;1.00
2973;DHT22;1496;51.404;7.232;2022-08-30T00:35:51;17.20;1.00
2973;DHT22;1496;51.404;7.232;2022-08-30T00:38:17;17.20;1.00
2973;DHT22;1496;51.404;7.232;2022-08-30T00:40:44;17.20;1.00
2973;DHT22;1496;51.404;7.232;2022-08-30T00:43:15;17.20;1.00
2973;DHT22;1496;51.404;7.232;2022-08-30T00:45:42;17.20;1.00
2973;DHT22;1496;51.404;7.232;2022-08-30T00:48:07;17.20;1.00
2973;DHT22;1496;51.404;7.232;2022-08-30T00:50:37;17.20;1.00
2973;DHT22;1496;51.404;7.232;2022-08-30T00:53:07;17.20;1.00
2973;DHT22;1496;51.404;7.232;2022-08-30T00:55:33;17.10;1.00
2973;DHT22;1496;51.404;7.232;2022-08-30T00:58:02;17.10;1.00
2973;DHT22;1496;51.404;7.232;2022-08-30T01:00:29;17.00;1.00
2973;DHT22;1496;51.404;7.232;2022-08-30T01:02:55;17.00;1.00
2973;DHT22;1496;51.404;7.232;2022-08-30T01:05:21;17.00;1.00
2973;DHT22;1496;51.404;7.232;2022-08-30T01:07:48;17.00;1.00
2973;DHT22;1496;51.404;7.232;2022-08-30T01:10:14;16.90;1.00
2973;DHT22;1496;51.404;7.232;2022-08-30T01:12:41;16.90;1.00
2973;DHT22;1496;51.404;7.232;2022-08-30T01:15:10;16.90;1.00
2973;DHT22;1496;51.404;7.232;2022-08-30T01:17:37;17.00;1.00
2973;DHT22;1496;51.404;7.232;2022-08-30T01:20:11;16.90;1.00
2973;DHT22;1496;51.404;7.232;2022-08-30T01:25:18;16.90;1.00
2973;DHT22;1496;51.404;7.232;2022-08-30T01:27:49;16.90;1.00
2973;DHT22;1496;51.404;7.232;2022-08-30T01:30:16;16.90;1.00
2973;DHT22;1496;51.404;7.232;2022-08-30T01:32:44;16.90;1.00
2973;DHT22;1496;51.404;7.232;2022-08-30T01:35:13;16.90;1.00
2973;DHT22;1496;51.404;7.232;2022-08-30T01:37:40;16.90;1.00
2973;DHT22;1496;51.404;7.232;2022-08-30T01:40:07;16.90;1.00
2973;DHT22;1496;51.404;7.232;2022-08-30T01:42:33;16.90;1.00
2973;DHT22;1496;51.404;7.232;2022-08-30T01:44:59;16.80;1.00
2973;DHT22;1496;51.404;7.232;2022-08-30T01:47:25;16.80;1.00
2973;DHT22;1496;51.404;7.232;2022-08-30T01:49:52;16.80;1.00
2973;DHT22;1496;51.404;7.232;2022-08-30T01:52:18;16.90;1.00
2973;DHT22;1496;51.404;7.232;2022-08-30T01:54:45;16.80;1.00
2973;DHT22;1496;51.404;7.232;2022-08-30T01:57:14;16.80;1.00
2973;DHT22;1496;51.404;7.232;2022-08-30T01:59:41;16.80;1.00
2973;DHT22;1496;51.404;7.232;2022-08-30T02:02:08;16.80;1.00
2973;DHT22;1496;51.404;7.232;2022-08-30T02:04:35;16.80;1.00
2973;DHT22;1496;51.404;7.232;2022-08-30T02:07:03;16.80;1.00
2973;DHT22;1496;51.404;7.232;2022-08-30T02:09:29;16.80;1.00
2973;DHT22;1496;51.404;7.232;2022-08-30T02:11:54;16.90;1.00
2973;DHT22;1496;51.404;7.232;2022-08-30T02:14:20;16.90;1.00
2973;DHT22;1496;51.404;7.232;2022-08-30T02:16:46;16.90;1.00
2973;DHT22;1496;51.404;7.232;2022-08-30T02:19:12;16.90;1.00
2973;DHT22;1496;51.404;7.232;2022-08-30T02:21:38;16.90;1.00
2973;DHT22;1496;51.404;7.232;2022-08-30T02:24:05;16.90;1.00
2973;DHT22;1496;51.404;7.232;2022-08-30T02:26:31;16.80;1.00
2973;DHT22;1496;51.404;7.232;2022-08-30T02:28:57;16.80;1.00
2973;DHT22;1496;51.404;7.232;2022-08-30T02:31:24;16.80;1.00
2973;DHT22;1496;51.404;7.232;2022-08-30T02:33:51;16.80;1.00
2973;DHT22;1496;51.404;7.232;2022-08-30T02:36:18;16.70;1.00
2973;DHT22;1496;51.404;7.232;2022-08-30T02:38:46;16.80;1.00
2973;DHT22;1496;51.404;7.232;2022-08-30T02:41:12;16.70;1.00
2973;DHT22;1496;51.404;7.232;2022-08-30T02:43:38;16.70;1.00
2973;DHT22;1496;51.404;7.232;2022-08-30T02:46:04;16.70;1.00
2973;DHT22;1496;51.404;7.232;2022-08-30T02:48:30;16.70;1.00
2973;DHT22;1496;51.404;7.232;2022-08-30T02:50:56;16.70;1.00
2973;DHT22;1496;51.404;7.232;2022-08-30T02:53:28;16.70;1.00
2973;DHT22;1496;51.404;7.232;2022-08-30T02:55:54;16.70;1.00
2973;DHT22;1496;51.404;7.232;2022-08-30T02:58:19;16.70;1.00
2973;DHT22;1496;51.404;7.232;2022-08-30T03:00:45;16.60;1.00
2973;DHT22;1496;51.404;7.232;2022-08-30T03:03:11;16.60;1.00
2973;DHT22;1496;51.404;7.232;2022-08-30T03:05:36;16.60;1.00
2973;DHT22;1496;51.404;7.232;2022-08-30T03:08:03;16.60;1.00
2973;DHT22;1496;51.404;7.232;2022-08-30T03:10:29;16.60;1.00
2973;DHT22;1496;51.404;7.232;2022-08-30T03:12:55;16.60;1.00
2973;DHT22;1496;51.404;7.232;2022-08-30T03:15:21;16.50;1.00
2973;DHT22;1496;51.404;7.232;2022-08-30T03:17:50;16.50;1.00
2973;DHT22;1496;51.404;7.232;2022-08-30T03:20:16;16.50;1.00
2973;DHT22;1496;51.404;7.232;2022-08-30T03:22:41;16.40;1.00
2973;DHT22;1496;51.404;7.232;2022-08-30T03:25:07;16.40;1.00
2973;DHT22;1496;51.404;7.232;2022-08-30T03:27:33;16.40;1.00
2973;DHT22;1496;51.404;7.232;2022-08-30T03:29:59;16.40;1.00
2973;DHT22;1496;51.404;7.232;2022-08-30T03:32:25;16.30;1.00
2973;DHT22;1496;51.404;7.232;2022-08-30T03:34:51;16.30;1.00
2973;DHT22;1496;51.404;7.232;2022-08-30T03:37:17;16.30;1.00
2973;DHT22;1496;51.404;7.232;2022-08-30T03:39:42;16.30;1.00
2973;DHT22;1496;51.404;7.232;2022-08-30T03:42:10;16.20;1.00
2973;DHT22;1496;51.404;7.232;2022-08-30T03:44:36;16.10;1.00
2973;DHT22;1496;51.404;7.232;2022-08-30T03:47:02;16.10;1.00
2973;DHT22;1496;51.404;7.232;2022-08-30T03:49:28;16.10;1.00
2973;DHT22;1496;51.404;7.232;2022-08-30T03:51:54;16.10;1.00
2973;DHT22;1496;51.404;7.232;2022-08-30T03:54:19;16.20;1.00
2973;DHT22;1496;51.404;7.232;2022-08-30T03:56:45;16.10;1.00
2973;DHT22;1496;51.404;7.232;2022-08-30T03:59:11;16.10;1.00
2973;DHT22;1496;51.404;7.232;2022-08-30T04:01:36;16.10;1.00
2973;DHT22;1496;51.404;7.232;2022-08-30T04:04:02;16.10;1.00
2973;DHT22;1496;51.404;7.232;2022-08-30T04:06:28;16.10;1.00
2973;DHT22;1496;51.404;7.232;2022-08-30T04:08:54;16.10;1.00
2973;DHT22;1496;51.404;7.232;2022-08-30T04:11:19;16.00;1.00
2973;DHT22;1496;51.404;7.232;2022-08-30T04:13:46;16.00;1.00
2973;DHT22;1496;51.404;7.232;2022-08-30T04:16:14;16.00;1.00
2973;DHT22;1496;51.404;7.232;2022-08-30T04:18:39;16.00;1.00
2973;DHT22;1496;51.404;7.232;2022-08-30T04:21:05;15.90;1.00
2973;DHT22;1496;51.404;7.232;2022-08-30T04:23:31;15.90;1.00
2973;DHT22;1496;51.404;7.232;2022-08-30T04:25:58;15.80;1.00
2973;DHT22;1496;51.404;7.232;2022-08-30T04:28:23;15.80;1.00
2973;DHT22;1496;51.404;7.232;2022-08-30T04:30:49;15.80;1.00
2973;DHT22;1496;51.404;7.232;2022-08-30T04:33:15;15.80;1.00
2973;DHT22;1496;51.404;7.232;2022-08-30T04:35:42;15.80;1.00
2973;DHT22;1496;51.404;7.232;2022-08-30T04:38:09;15.80;1.00
2973;DHT22;1496;51.404;7.232;2022-08-30T04:40:35;15.70;1.00
2973;DHT22;1496;51.404;7.232;2022-08-30T04:43:01;15.70;1.00
2973;DHT22;1496;51.404;7.232;2022-08-30T04:45:26;15.70;1.00
2973;DHT22;1496;51.404;7.232;2022-08-30T04:47:52;15.60;1.00
2973;DHT22;1496;51.404;7.232;2022-08-30T04:50:19;15.60;1.00
2973;DHT22;1496;51.404;7.232;2022-08-30T04:52:45;15.60;1.00
2973;DHT22;1496;51.404;7.232;2022-08-30T04:55:12;15.60;1.00
2973;DHT22;1496;51.404;7.232;2022-08-30T04:57:38;15.60;1.00
2973;DHT22;1496;51.404;7.232;2022-08-30T05:00:10;15.60;1.00
2973;DHT22;1496;51.404;7.232;2022-08-30T05:02:40;15.60;1.00
2973;DHT22;1496;51.404;7.232;2022-08-30T05:05:07;15.50;1.00
2973;DHT22;1496;51.404;7.232;2022-08-30T05:07:52;15.50;1.00
2973;DHT22;1496;51.404;7.232;2022-08-30T05:10:17;15.50;1.00
2973;DHT22;1496;51.404;7.232;2022-08-30T05:12:43;15.50;1.00
2973;DHT22;1496;51.404;7.232;2022-08-30T05:15:09;15.50;1.00
2973;DHT22;1496;51.404;7.232;2022-08-30T05:17:37;15.50;1.00
2973;DHT22;1496;51.404;7.232;2022-08-30T05:20:05;15.50;1.00
2973;DHT22;1496;51.404;7.232;2022-08-30T05:22:30;15.50;1.00
2973;DHT22;1496;51.404;7.232;2022-08-30T05:24:56;15.50;1.00
2973;DHT22;1496;51.404;7.232;2022-08-30T05:27:22;15.50;1.00
2973;DHT22;1496;51.404;7.232;2022-08-30T05:29:47;15.50;1.00
2973;DHT22;1496;51.404;7.232;2022-08-30T05:32:13;15.60;1.00
2973;DHT22;1496;51.404;7.232;2022-08-30T05:34:39;15.60;1.00
2973;DHT22;1496;51.404;7.232;2022-08-30T05:37:04;15.60;1.00
2973;DHT22;1496;51.404;7.232;2022-08-30T05:39:30;15.60;1.00
2973;DHT22;1496;51.404;7.232;2022-08-30T05:41:57;15.60;1.00
2973;DHT22;1496;51.404;7.232;2022-08-30T05:44:22;15.60;1.00
2973;DHT22;1496;51.404;7.232;2022-08-30T05:46:48;15.70;1.00
2973;DHT22;1496;51.404;7.232;2022-08-30T05:49:14;15.80;1.00
2973;DHT22;1496;51.404;7.232;2022-08-30T05:51:40;15.80;1.00
2973;DHT22;1496;51.404;7.232;2022-08-30T05:54:06;15.80;1.00
2973;DHT22;1496;51.404;7.232;2022-08-30T05:56:35;15.80;1.00
2973;DHT22;1496;51.404;7.232;2022-08-30T05:59:01;15.80;1.00
2973;DHT22;1496;51.404;7.232;2022-08-30T06:01:33;15.80;1.00
2973;DHT22;1496;51.404;7.232;2022-08-30T06:04:02;15.80;1.00
2973;DHT22;1496;51.404;7.232;2022-08-30T06:06:29;15.90;1.00
2973;DHT22;1496;51.404;7.232;2022-08-30T06:08:55;15.90;1.00
2973;DHT22;1496;51.404;7.232;2022-08-30T06:11:23;15.80;1.00
2973;DHT22;1496;51.404;7.232;2022-08-30T06:13:51;15.80;1.00
2973;DHT22;1496;51.404;7.232;2022-08-30T06:16:19;15.80;1.00
2973;DHT22;1496;51.404;7.232;2022-08-30T06:18:46;15.90;1.00
2973;DHT22;1496;51.404;7.232;2022-08-30T06:21:21;15.90;1.00
2973;DHT22;1496;51.404;7.232;2022-08-30T06:23:48;15.90;1.00
2973;DHT22;1496;51.404;7.232;2022-08-30T06:26:14;15.90;1.00
2973;DHT22;1496;51.404;7.232;2022-08-30T06:28:40;15.90;1.00
2973;DHT22;1496;51.404;7.232;2022-08-30T06:31:07;15.90;1.00
2973;DHT22;1496;51.404;7.232;2022-08-30T06:33:34;16.00;1.00
2973;DHT22;1496;51.404;7.232;2022-08-30T06:38:30;16.00;1.00
2973;DHT22;1496;51.404;7.232;2022-08-30T06:40:55;16.10;1.00
2973;DHT22;1496;51.404;7.232;2022-08-30T06:43:21;16.20;1.00
2973;DHT22;1496;51.404;7.232;2022-08-30T06:45:46;16.30;1.00
2973;DHT22;1496;51.404;7.232;2022-08-30T06:48:12;16.40;1.00
2973;DHT22;1496;51.404;7.232;2022-08-30T06:50:38;16.50;1.00
2973;DHT22;1496;51.404;7.232;2022-08-30T06:53:07;16.60;1.00
2973;DHT22;1496;51.404;7.232;2022-08-30T06:55:33;16.80;1.00
2973;DHT22;1496;51.404;7.232;2022-08-30T06:57:59;16.90;1.00
2973;DHT22;1496;51.404;7.232;2022-08-30T07:00:26;17.00;1.00
2973;DHT22;1496;51.404;7.232;2022-08-30T07:02:51;17.00;1.00
2973;DHT22;1496;51.404;7.232;2022-08-30T07:05:18;17.10;1.00
2973;DHT22;1496;51.404;7.232;2022-08-30T07:07:46;17.10;1.00
2973;DHT22;1496;51.404;7.232;2022-08-30T07:10:12;17.30;1.00
2973;DHT22;1496;51.404;7.232;2022-08-30T07:12:39;17.40;1.00
2973;DHT22;1496;51.404;7.232;2022-08-30T07:15:05;17.50;1.00
2973;DHT22;1496;51.404;7.232;2022-08-30T07:17:33;17.60;1.00
2973;DHT22;1496;51.404;7.232;2022-08-30T07:20:18;17.70;1.00
2973;DHT22;1496;51.404;7.232;2022-08-30T07:22:45;17.80;1.00
2973;DHT22;1496;51.404;7.232;2022-08-30T07:25:11;17.80;1.00
2973;DHT22;1496;51.404;7.232;2022-08-30T07:27:37;17.90;1.00
2973;DHT22;1496;51.404;7.232;2022-08-30T07:30:05;18.00;1.00
2973;DHT22;1496;51.404;7.232;2022-08-30T07:32:31;18.10;1.00
2973;DHT22;1496;51.404;7.232;2022-08-30T07:34:57;18.10;1.00
2973;DHT22;1496;51.404;7.232;2022-08-30T07:37:22;18.10;1.00
2973;DHT22;1496;51.404;7.232;2022-08-30T07:39:48;18.10;1.00
2973;DHT22;1496;51.404;7.232;2022-08-30T07:42:15;18.20;1.00
2973;DHT22;1496;51.404;7.232;2022-08-30T07:44:40;18.20;1.00
2973;DHT22;1496;51.404;7.232;2022-08-30T07:47:06;18.20;1.00
2973;DHT22;1496;51.404;7.232;2022-08-30T07:49:32;18.20;1.00
2973;DHT22;1496;51.404;7.232;2022-08-30T07:51:57;18.20;1.00
2973;DHT22;1496;51.404;7.232;2022-08-30T07:54:23;18.30;1.00
2973;DHT22;1496;51.404;7.232;2022-08-30T07:56:49;18.30;1.00
2973;DHT22;1496;51.404;7.232;2022-08-30T07:59:15;18.40;1.00
2973;DHT22;1496;51.404;7.232;2022-08-30T08:01:40;18.40;1.00
2973;DHT22;1496;51.404;7.232;2022-08-30T08:04:07;18.50;1.00
2973;DHT22;1496;51.404;7.232;2022-08-30T08:06:37;18.50;1.00
2973;DHT22;1496;51.404;7.232;2022-08-30T08:09:03;18.50;1.00
2973;DHT22;1496;51.404;7.232;2022-08-30T08:11:29;18.60;1.00
2973;DHT22;1496;51.404;7.232;2022-08-30T08:13:56;18.60;1.00
2973;DHT22;1496;51.404;7.232;2022-08-30T08:16:25;18.70;1.00
2973;DHT22;1496;51.404;7.232;2022-08-30T08:18:52;18.70;1.00
2973;DHT22;1496;51.404;7.232;2022-08-30T08:21:19;18.90;1.00
2973;DHT22;1496;51.404;7.232;2022-08-30T08:23:47;18.90;1.00
2973;DHT22;1496;51.404;7.232;2022-08-30T08:26:18;18.90;1.00
2973;DHT22;1496;51.404;7.232;2022-08-30T08:28:45;19.00;1.00
2973;DHT22;1496;51.404;7.232;2022-08-30T08:31:19;19.10;1.00
2973;DHT22;1496;51.404;7.232;2022-08-30T08:33:46;19.10;1.00
2973;DHT22;1496;51.404;7.232;2022-08-30T08:36:12;19.20;1.00
2973;DHT22;1496;51.404;7.232;2022-08-30T08:38:37;19.30;1.00
2973;DHT22;1496;51.404;7.232;2022-08-30T08:43:57;19.40;1.00
2973;DHT22;1496;51.404;7.232;2022-08-30T08:49:27;19.50;1.00
2973;DHT22;1496;51.404;7.232;2022-08-30T08:51:54;19.50;1.00
2973;DHT22;1496;51.404;7.232;2022-08-30T08:54:53;19.50;1.00
2973;DHT22;1496;51.404;7.232;2022-08-30T08:57:23;19.60;1.00
2973;DHT22;1496;51.404;7.232;2022-08-30T08:59:49;19.70;1.00
2973;DHT22;1496;51.404;7.232;2022-08-30T09:02:28;19.60;1.00
2973;DHT22;1496;51.404;7.232;2022-08-30T09:04:58;19.70;1.00
2973;DHT22;1496;51.404;7.232;2022-08-30T09:07:28;19.90;1.00
2973;DHT22;1496;51.404;7.232;2022-08-30T09:09:56;20.00;1.00
2973;DHT22;1496;51.404;7.232;2022-08-30T09:12:22;20.10;1.00
2973;DHT22;1496;51.404;7.232;2022-08-30T09:15:38;20.20;1.00
2973;DHT22;1496;51.404;7.232;2022-08-30T09:17:50;20.40;1.00
2973;DHT22;1496;51.404;7.232;2022-08-30T09:20:26;20.40;1.00
2973;DHT22;1496;51.404;7.232;2022-08-30T09:22:52;20.50;1.00
2973;DHT22;1496;51.404;7.232;2022-08-30T09:25:28;20.50;1.00
2973;DHT22;1496;51.404;7.232;2022-08-30T09:28:07;20.50;1.00
2973;DHT22;1496;51.404;7.232;2022-08-30T09:30:37;20.50;1.00
2973;DHT22;1496;51.404;7.232;2022-08-30T09:33:18;20.50;1.00
2973;DHT22;1496;51.404;7.232;2022-08-30T09:35:49;20.30;1.00
2973;DHT22;1496;51.404;7.232;2022-08-30T09:38:30;20.20;1.00
2973;DHT22;1496;51.404;7.232;2022-08-30T09:41:24;20.20;1.00
2973;DHT22;1496;51.404;7.232;2022-08-30T09:44:04;20.20;1.00
2973;DHT22;1496;51.404;7.232;2022-08-30T09:46:30;20.30;1.00
2973;DHT22;1496;51.404;7.232;2022-08-30T09:48:55;20.40;1.00
2973;DHT22;1496;51.404;7.232;2022-08-30T09:59:09;20.40;1.00
2973;DHT22;1496;51.404;7.232;2022-08-30T10:01:46;20.50;1.00
2973;DHT22;1496;51.404;7.232;2022-08-30T10:06:53;20.80;1.00
2973;DHT22;1496;51.404;7.232;2022-08-30T10:09:26;21.20;1.00
2973;DHT22;1496;51.404;7.232;2022-08-30T10:14:37;21.40;1.00
2973;DHT22;1496;51.404;7.232;2022-08-30T10:20:00;21.30;1.00
2973;DHT22;1496;51.404;7.232;2022-08-30T10:22:32;21.30;1.00
2973;DHT22;1496;51.404;7.232;2022-08-30T10:25:09;21.20;1.00
2973;DHT22;1496;51.404;7.232;2022-08-30T10:27:57;21.30;1.00
2973;DHT22;1496;51.404;7.232;2022-08-30T10:30:27;21.50;1.00
2973;DHT22;1496;51.404;7.232;2022-08-30T10:33:16;21.70;1.00
2973;DHT22;1496;51.404;7.232;2022-08-30T10:35:46;21.90;1.00
2973;DHT22;1496;51.404;7.232;2022-08-30T10:38:28;22.10;1.00
2973;DHT22;1496;51.404;7.232;2022-08-30T10:41:12;22.20;1.00
2973;DHT22;1496;51.404;7.232;2022-08-30T10:46:57;22.20;1.00
2973;DHT22;1496;51.404;7.232;2022-08-30T10:49:38;22.40;1.00
2973;DHT22;1496;51.404;7.232;2022-08-30T10:52:28;22.60;1.00
2973;DHT22;1496;51.404;7.232;2022-08-30T10:55:01;22.70;1.00
2973;DHT22;1496;51.404;7.232;2022-08-30T10:57:29;22.60;1.00
2973;DHT22;1496;51.404;7.232;2022-08-30T11:00:23;22.70;1.00
2973;DHT22;1496;51.404;7.232;2022-08-30T11:08:12;22.90;1.00
2973;DHT22;1496;51.404;7.232;2022-08-30T11:13:55;22.90;1.00
2973;DHT22;1496;51.404;7.232;2022-08-30T11:16:36;23.00;1.00
2973;DHT22;1496;51.404;7.232;2022-08-30T11:19:22;23.10;1.00
2973;DHT22;1496;51.404;7.232;2022-08-30T11:21:49;22.90;1.00
2973;DHT22;1496;51.404;7.232;2022-08-30T11:24:23;22.60;1.00
2973;DHT22;1496;51.404;7.232;2022-08-30T11:26:56;22.50;1.00
2973;DHT22;1496;51.404;7.232;2022-08-30T11:31:59;22.60;1.00
2973;DHT22;1496;51.404;7.232;2022-08-30T11:37:37;22.70;1.00
2973;DHT22;1496;51.404;7.232;2022-08-30T11:42:50;23.10;1.00
2973;DHT22;1496;51.404;7.232;2022-08-30T11:47:57;23.60;1.00
2973;DHT22;1496;51.404;7.232;2022-08-30T11:53:32;23.70;1.00
2973;DHT22;1496;51.404;7.232;2022-08-30T11:56:40;23.80;1.00
2973;DHT22;1496;51.404;7.232;2022-08-30T12:05:07;23.60;1.00
2973;DHT22;1496;51.404;7.232;2022-08-30T12:08:00;23.50;1.00
2973;DHT22;1496;51.404;7.232;2022-08-30T12:10:41;23.50;1.00
2973;DHT22;1496;51.404;7.232;2022-08-30T12:13:09;23.50;1.00
2973;DHT22;1496;51.404;7.232;2022-08-30T12:15:57;23.40;1.00
2973;DHT22;1496;51.404;7.232;2022-08-30T12:18:28;23.30;1.00
2973;DHT22;1496;51.404;7.232;2022-08-30T12:20:59;23.30;1.00
2973;DHT22;1496;51.404;7.232;2022-08-30T12:23:32;23.30;1.00
2973;DHT22;1496;51.404;7.232;2022-08-30T12:28:49;23.30;1.00
2973;DHT22;1496;51.404;7.232;2022-08-30T12:31:22;23.20;1.00
2973;DHT22;1496;51.404;7.232;2022-08-30T12:33:59;23.20;1.00
2973;DHT22;1496;51.404;7.232;2022-08-30T12:36:36;23.10;1.00
2973;DHT22;1496;51.404;7.232;2022-08-30T12:39:05;23.10;1.00
2973;DHT22;1496;51.404;7.232;2022-08-30T12:41:31;23.20;1.00
2973;DHT22;1496;51.404;7.232;2022-08-30T12:43:57;23.10;1.00
2973;DHT22;1496;51.404;7.232;2022-08-30T12:46:24;23.30;1.00
2973;DHT22;1496;51.404;7.232;2022-08-30T12:48:50;23.40;1.00
2973;DHT22;1496;51.404;7.232;2022-08-30T12:51:37;23.50;1.00
2973;DHT22;1496;51.404;7.232;2022-08-30T12:54:07;23.60;1.00
2973;DHT22;1496;51.404;7.232;2022-08-30T12:56:50;23.60;1.00
2973;DHT22;1496;51.404;7.232;2022-08-30T13:02:18;24.00;1.00
2973;DHT22;1496;51.404;7.232;2022-08-30T13:04:45;23.90;1.00
2973;DHT22;1496;51.404;7.232;2022-08-30T13:07:31;23.90;1.00
2973;DHT22;1496;51.404;7.232;2022-08-30T13:10:13;23.90;1.00
2973;DHT22;1496;51.404;7.232;2022-08-30T13:12:57;24.00;1.00
2973;DHT22;1496;51.404;7.232;2022-08-30T13:15:29;23.90;1.00
2973;DHT22;1496;51.404;7.232;2022-08-30T13:18:26;23.80;1.00
2973;DHT22;1496;51.404;7.232;2022-08-30T13:23:33;23.90;1.00
2973;DHT22;1496;51.404;7.232;2022-08-30T13:25:59;23.80;1.00
2973;DHT22;1496;51.404;7.232;2022-08-30T13:28:25;23.80;1.00
2973;DHT22;1496;51.404;7.232;2022-08-30T13:30:51;23.80;1.00
2973;DHT22;1496;51.404;7.232;2022-08-30T13:33:16;23.90;1.00
2973;DHT22;1496;51.404;7.232;2022-08-30T13:35:43;24.00;1.00
2973;DHT22;1496;51.404;7.232;2022-08-30T13:38:09;24.00;1.00
2973;DHT22;1496;51.404;7.232;2022-08-30T13:40:34;24.00;1.00
2973;DHT22;1496;51.404;7.232;2022-08-30T13:43:00;24.00;1.00
2973;DHT22;1496;51.404;7.232;2022-08-30T13:45:26;24.20;1.00
2973;DHT22;1496;51.404;7.232;2022-08-30T13:47:52;24.30;1.00
2973;DHT22;1496;51.404;7.232;2022-08-30T13:50:18;24.20;1.00
2973;DHT22;1496;51.404;7.232;2022-08-30T13:52:44;24.10;1.00
2973;DHT22;1496;51.404;7.232;2022-08-30T13:55:11;24.10;1.00
2973;DHT22;1496;51.404;7.232;2022-08-30T13:57:37;24.20;1.00
2973;DHT22;1496;51.404;7.232;2022-08-30T14:00:05;24.20;1.00
2973;DHT22;1496;51.404;7.232;2022-08-30T14:02:37;24.20;1.00
2973;DHT22;1496;51.404;7.232;2022-08-30T14:05:03;24.10;1.00
2973;DHT22;1496;51.404;7.232;2022-08-30T14:07:29;24.10;1.00
2973;DHT22;1496;51.404;7.232;2022-08-30T14:09:54;24.20;1.00
2973;DHT22;1496;51.404;7.232;2022-08-30T14:12:20;24.20;1.00
2973;DHT22;1496;51.404;7.232;2022-08-30T14:14:46;24.10;1.00
2973;DHT22;1496;51.404;7.232;2022-08-30T14:17:12;24.10;1.00
2973;DHT22;1496;51.404;7.232;2022-08-30T14:19:37;23.90;1.00
2973;DHT22;1496;51.404;7.232;2022-08-30T14:22:03;23.90;1.00
2973;DHT22;1496;51.404;7.232;2022-08-30T14:24:29;24.00;1.00
2973;DHT22;1496;51.404;7.232;2022-08-30T14:26:54;24.00;1.00
2973;DHT22;1496;51.404;7.232;2022-08-30T14:29:23;24.00;1.00
2973;DHT22;1496;51.404;7.232;2022-08-30T14:31:50;24.10;1.00
2973;DHT22;1496;51.404;7.232;2022-08-30T14:34:16;24.10;1.00
2973;DHT22;1496;51.404;7.232;2022-08-30T14:36:44;24.10;1.00
2973;DHT22;1496;51.404;7.232;2022-08-30T14:39:15;24.10;1.00
2973;DHT22;1496;51.404;7.232;2022-08-30T14:41:53;24.00;1.00
2973;DHT22;1496;51.404;7.232;2022-08-30T14:44:21;24.00;1.00
2973;DHT22;1496;51.404;7.232;2022-08-30T14:46:47;24.00;1.00
2973;DHT22;1496;51.404;7.232;2022-08-30T14:49:14;24.00;1.00
2973;DHT22;1496;51.404;7.232;2022-08-30T14:51:40;23.90;1.00
2973;DHT22;1496;51.404;7.232;2022-08-30T14:54:07;24.00;1.00
2973;DHT22;1496;51.404;7.232;2022-08-30T14:56:33;23.90;1.00
2973;DHT22;1496;51.404;7.232;2022-08-30T14:58:58;23.80;1.00
2973;DHT22;1496;51.404;7.232;2022-08-30T15:01:28;23.80;1.00
2973;DHT22;1496;51.404;7.232;2022-08-30T15:03:55;23.80;1.00
2973;DHT22;1496;51.404;7.232;2022-08-30T15:06:21;23.80;1.00
2973;DHT22;1496;51.404;7.232;2022-08-30T15:08:47;23.80;1.00
2973;DHT22;1496;51.404;7.232;2022-08-30T15:11:15;23.70;1.00
2973;DHT22;1496;51.404;7.232;2022-08-30T15:13:41;23.60;1.00
2973;DHT22;1496;51.404;7.232;2022-08-30T15:16:12;23.50;1.00
2973;DHT22;1496;51.404;7.232;2022-08-30T15:18:41;23.50;1.00
2973;DHT22;1496;51.404;7.232;2022-08-30T15:21:08;23.50;1.00
2973;DHT22;1496;51.404;7.232;2022-08-30T15:23:34;23.50;1.00
2973;DHT22;1496;51.404;7.232;2022-08-30T15:26:00;23.50;1.00
2973;DHT22;1496;51.404;7.232;2022-08-30T15:28:25;23.50;1.00
2973;DHT22;1496;51.404;7.232;2022-08-30T15:30:51;23.50;1.00
2973;DHT22;1496;51.404;7.232;2022-08-30T15:33:17;23.50;1.00
2973;DHT22;1496;51.404;7.232;2022-08-30T15:35:43;23.50;1.00
2973;DHT22;1496;51.404;7.232;2022-08-30T15:38:08;23.50;1.00
2973;DHT22;1496;51.404;7.232;2022-08-30T15:40:34;23.40;1.00
2973;DHT22;1496;51.404;7.232;2022-08-30T15:43:03;23.40;1.00
2973;DHT22;1496;51.404;7.232;2022-08-30T15:45:29;23.30;1.00
2973;DHT22;1496;51.404;7.232;2022-08-30T15:47:58;23.30;1.00
2973;DHT22;1496;51.404;7.232;2022-08-30T15:50:25;23.30;1.00
2973;DHT22;1496;51.404;7.232;2022-08-30T15:52:50;23.30;1.00
2973;DHT22;1496;51.404;7.232;2022-08-30T15:55:16;23.30;1.00
2973;DHT22;1496;51.404;7.232;2022-08-30T15:57:42;23.30;1.00
2973;DHT22;1496;51.404;7.232;2022-08-30T16:00:09;23.20;1.00
2973;DHT22;1496;51.404;7.232;2022-08-30T16:02:36;23.20;1.00
2973;DHT22;1496;51.404;7.232;2022-08-30T16:05:02;23.10;1.00
2973;DHT22;1496;51.404;7.232;2022-08-30T16:07:28;23.10;1.00
2973;DHT22;1496;51.404;7.232;2022-08-30T16:09:54;23.00;1.00
2973;DHT22;1496;51.404;7.232;2022-08-30T16:12:19;23.00;1.00
2973;DHT22;1496;51.404;7.232;2022-08-30T16:14:45;22.90;1.00
2973;DHT22;1496;51.404;7.232;2022-08-30T16:17:11;22.90;1.00
2973;DHT22;1496;51.404;7.232;2022-08-30T16:19:37;22.90;1.00
2973;DHT22;1496;51.404;7.232;2022-08-30T16:22:03;22.80;1.00
2973;DHT22;1496;51.404;7.232;2022-08-30T16:24:28;22.80;1.00
2973;DHT22;1496;51.404;7.232;2022-08-30T16:26:54;22.80;1.00
2973;DHT22;1496;51.404;7.232;2022-08-30T16:29:20;22.80;1.00
2973;DHT22;1496;51.404;7.232;2022-08-30T16:31:46;22.80;1.00
2973;DHT22;1496;51.404;7.232;2022-08-30T16:34:14;22.80;1.00
2973;DHT22;1496;51.404;7.232;2022-08-30T16:36:40;22.70;1.00
2973;DHT22;1496;51.404;7.232;2022-08-30T16:39:08;22.70;1.00
2973;DHT22;1496;51.404;7.232;2022-08-30T16:41:34;22.60;1.00
2973;DHT22;1496;51.404;7.232;2022-08-30T16:44:00;22.60;1.00
2973;DHT22;1496;51.404;7.232;2022-08-30T16:46:26;22.50;1.00
2973;DHT22;1496;51.404;7.232;2022-08-30T16:48:51;22.50;1.00
2973;DHT22;1496;51.404;7.232;2022-08-30T16:51:20;22.40;1.00
2973;DHT22;1496;51.404;7.232;2022-08-30T16:53:46;22.40;1.00
2973;DHT22;1496;51.404;7.232;2022-08-30T16:56:17;22.40;1.00
2973;DHT22;1496;51.404;7.232;2022-08-30T16:58:43;22.40;1.00
2973;DHT22;1496;51.404;7.232;2022-08-30T17:01:09;22.40;1.00
2973;DHT22;1496;51.404;7.232;2022-08-30T17:03:35;22.40;1.00
2973;DHT22;1496;51.404;7.232;2022-08-30T17:06:01;22.40;1.00
2973;DHT22;1496;51.404;7.232;2022-08-30T17:08:27;22.40;1.00
2973;DHT22;1496;51.404;7.232;2022-08-30T17:10:53;22.30;1.00
2973;DHT22;1496;51.404;7.232;2022-08-30T17:13:18;22.30;1.00
2973;DHT22;1496;51.404;7.232;2022-08-30T17:15:44;22.20;1.00
2973;DHT22;1496;51.404;7.232;2022-08-30T17:18:13;22.20;1.00
2973;DHT22;1496;51.404;7.232;2022-08-30T17:20:39;22.20;1.00
2973;DHT22;1496;51.404;7.232;2022-08-30T17:23:04;22.10;1.00
2973;DHT22;1496;51.404;7.232;2022-08-30T17:25:30;22.00;1.00
2973;DHT22;1496;51.404;7.232;2022-08-30T17:27:56;22.00;1.00
2973;DHT22;1496;51.404;7.232;2022-08-30T17:30:21;22.00;1.00
2973;DHT22;1496;51.404;7.232;2022-08-30T17:32:47;21.90;1.00